Time;durP1;ratioP1;P1;durP2;ratioP2;P2;SDS_P1;SDS_P2;PMS_P1;PMS_P2;Temp;Humidity;BMP_temperature;BMP_pressure;BME280_temperature;BME280_humidity;BME280_pressure;Samples;Min_cycle;Max_cycle;Signal;HPM_P1;HPM_P2
2022/05/08 00:01:35;;;;;;;;;3.50;2.00;;;;;;;;5080639;28;11309;-72
2022/05/08 00:04:01;;;;;;;;;2.00;2.00;;;;;;;;5080912;28;11690;-71
2022/05/08 00:06:26;;;;;;;;;2.00;2.00;;;;;;;;5080602;28;11511;-70
2022/05/08 00:08:51;;;;;;;;;1.25;1.25;;;;;;;;5080045;28;8804;-71
2022/05/08 00:11:16;;;;;;;;;0.75;0.75;;;;;;;;5078886;28;11323;-71
2022/05/08 00:13:42;;;;;;;;;2.50;1.00;;;;;;;;5080591;28;10290;-70
2022/05/08 00:16:07;;;;;;;;;2.50;0.00;;;;;;;;5080168;28;11469;-70
2022/05/08 00:18:32;;;;;;;;;2.00;1.75;;;;;;;;5080686;28;8935;-71
2022/05/08 00:20:58;;;;;;;;;2.75;1.00;;;;;;;;5080103;28;10486;-71
2022/05/08 00:23:23;;;;;;;;;3.75;2.00;;;;;;;;5080387;28;8819;-71
2022/05/08 00:25:48;;;;;;;;;1.75;1.00;;;;;;;;5080467;28;8796;-71
2022/05/08 00:28:14;;;;;;;;;1.25;1.25;;;;;;;;5078362;28;10817;-70
2022/05/08 00:30:40;;;;;;;;;0.75;0.75;;;;;;;;5080311;28;8938;-71
2022/05/08 00:33:05;;;;;;;;;1.75;1.50;;;;;;;;5080593;28;10536;-71
2022/05/08 00:35:30;;;;;;;;;2.00;1.00;;;;;;;;5080482;28;11404;-70
2022/05/08 00:37:56;;;;;;;;;2.00;2.00;;;;;;;;5079941;28;11979;-71
2022/05/08 00:40:21;;;;;;;;;1.50;0.50;;;;;;;;5078523;28;9009;-71
2022/05/08 00:42:46;;;;;;;;;3.50;3.50;;;;;;;;5078346;28;13736;-71
2022/05/08 00:45:11;;;;;;;;;2.50;2.00;;;;;;;;5080145;28;8799;-71
2022/05/08 00:47:38;;;;;;;;;1.25;1.00;;;;;;;;5079892;28;12485;-71
2022/05/08 00:50:04;;;;;;;;;1.00;1.00;;;;;;;;5077959;28;10355;-71
2022/05/08 00:52:29;;;;;;;;;2.50;1.00;;;;;;;;5079439;28;11437;-71
2022/05/08 00:54:55;;;;;;;;;2.00;1.50;;;;;;;;5080026;28;11450;-71
2022/05/08 00:57:21;;;;;;;;;4.50;1.50;;;;;;;;5080386;28;8820;-71
2022/05/08 00:59:46;;;;;;;;;1.25;1.25;;;;;;;;5080163;28;8885;-71
2022/05/08 01:02:12;;;;;;;;;2.00;1.25;;;;;;;;5078226;28;12192;-71
2022/05/08 01:04:37;;;;;;;;;1.00;1.00;;;;;;;;5079407;28;8847;-71
2022/05/08 01:07:03;;;;;;;;;2.00;2.00;;;;;;;;5079075;28;11469;-71
2022/05/08 01:09:28;;;;;;;;;3.00;2.00;;;;;;;;5079331;28;8796;-71
2022/05/08 01:11:54;;;;;;;;;1.00;1.00;;;;;;;;5079468;28;8860;-70
2022/05/08 01:14:19;;;;;;;;;4.25;3.00;;;;;;;;5080406;28;8799;-71
2022/05/08 01:16:44;;;;;;;;;2.75;2.00;;;;;;;;5079938;28;10587;-70
2022/05/08 01:19:10;;;;;;;;;1.50;1.50;;;;;;;;5080126;28;9533;-70
2022/05/08 01:21:42;;;;;;;;;1.25;1.25;;;;;;;;5079399;28;11980;-70
2022/05/08 01:24:08;;;;;;;;;4.00;3.00;;;;;;;;5079541;28;8772;-71
2022/05/08 01:26:33;;;;;;;;;2.25;2.25;;;;;;;;5079299;28;11574;-71
2022/05/08 01:28:58;;;;;;;;;2.00;2.00;;;;;;;;5079286;28;12198;-71
2022/05/08 01:31:24;;;;;;;;;3.00;2.50;;;;;;;;5079170;28;8811;-72
2022/05/08 01:33:49;;;;;;;;;3.00;3.00;;;;;;;;5079121;28;11426;-72
2022/05/08 01:36:14;;;;;;;;;2.25;2.25;;;;;;;;5078813;28;9028;-72
2022/05/08 01:38:39;;;;;;;;;2.75;2.75;;;;;;;;5078491;28;11304;-72
2022/05/08 01:41:05;;;;;;;;;5.00;2.25;;;;;;;;5078796;28;8804;-72
2022/05/08 01:43:36;;;;;;;;;3.00;2.00;;;;;;;;5079704;28;10249;-72
2022/05/08 01:46:05;;;;;;;;;5.00;2.00;;;;;;;;5079095;28;11816;-71
2022/05/08 01:48:30;;;;;;;;;4.00;2.00;;;;;;;;5079417;28;11423;-72
2022/05/08 01:50:57;;;;;;;;;5.00;3.00;;;;;;;;5078767;28;12173;-72
2022/05/08 01:53:23;;;;;;;;;6.00;3.50;;;;;;;;5079329;28;8836;-72
2022/05/08 01:55:55;;;;;;;;;4.00;3.00;;;;;;;;5079071;28;12533;-72
2022/05/08 01:58:21;;;;;;;;;5.00;2.00;;;;;;;;5078652;28;11452;-72
2022/05/08 02:00:47;;;;;;;;;4.75;2.50;;;;;;;;5079609;28;11489;-72
2022/05/08 02:03:13;;;;;;;;;2.00;2.00;;;;;;;;5078979;28;11341;-72
2022/05/08 02:05:43;;;;;;;;;3.00;3.00;;;;;;;;5079295;28;11825;-72
2022/05/08 02:08:09;;;;;;;;;5.25;5.00;;;;;;;;5077796;28;11425;-72
2022/05/08 02:10:34;;;;;;;;;5.25;3.00;;;;;;;;5078518;28;11536;-72
2022/05/08 02:12:59;;;;;;;;;6.50;3.00;;;;;;;;5076866;28;11548;-72
2022/05/08 02:15:31;;;;;;;;;2.75;2.75;;;;;;;;5078631;28;9492;-72
2022/05/08 02:18:01;;;;;;;;;4.00;3.50;;;;;;;;5078416;28;11548;-71
2022/05/08 02:20:27;;;;;;;;;5.00;3.00;;;;;;;;5078414;28;11559;-71
2022/05/08 02:22:52;;;;;;;;;5.75;2.00;;;;;;;;5078316;28;11613;-71
2022/05/08 02:25:17;;;;;;;;;4.00;3.50;;;;;;;;5078953;28;9678;-71
2022/05/08 02:27:46;;;;;;;;;5.50;4.00;;;;;;;;5078650;28;11480;-71
2022/05/08 02:30:12;;;;;;;;;2.00;2.00;;;;;;;;5078082;28;11549;-71
2022/05/08 02:32:38;;;;;;;;;2.00;1.00;;;;;;;;5078157;28;11586;-71
2022/05/08 02:35:07;;;;;;;;;3.00;2.25;;;;;;;;5078851;28;8808;-71
2022/05/08 02:37:35;;;;;;;;;5.00;5.00;;;;;;;;5078016;28;11398;-71
2022/05/08 02:40:01;;;;;;;;;3.50;3.00;;;;;;;;5078201;28;12687;-72
2022/05/08 02:42:27;;;;;;;;;5.00;5.00;;;;;;;;5077964;28;11528;-71
2022/05/08 02:44:52;;;;;;;;;5.00;5.00;;;;;;;;5078357;28;10520;-71
2022/05/08 02:47:17;;;;;;;;;3.00;3.00;;;;;;;;5078802;28;11485;-71
2022/05/08 02:49:43;;;;;;;;;3.00;3.00;;;;;;;;5078328;28;8824;-72
2022/05/08 02:52:08;;;;;;;;;8.00;3.00;;;;;;;;5078307;28;8861;-71
2022/05/08 02:54:33;;;;;;;;;4.25;3.50;;;;;;;;5078220;28;8827;-71
2022/05/08 02:59:42;;;;;;;;;2.75;2.75;;;;;;;;5077781;28;11338;-71
2022/05/08 03:02:08;;;;;;;;;3.00;3.00;;;;;;;;5075986;28;11672;-71
2022/05/08 03:04:34;;;;;;;;;5.00;3.00;;;;;;;;5078532;28;11661;-71
2022/05/08 03:07:02;;;;;;;;;7.00;5.50;;;;;;;;5076253;28;12215;-71
2022/05/08 03:09:27;;;;;;;;;5.00;3.00;;;;;;;;5077722;28;11805;-71
2022/05/08 03:11:53;;;;;;;;;6.25;3.50;;;;;;;;5077364;28;11811;-72
2022/05/08 03:14:20;;;;;;;;;4.00;3.00;;;;;;;;5078277;28;11289;-71
2022/05/08 03:16:45;;;;;;;;;5.25;3.00;;;;;;;;5078122;28;11437;-71
2022/05/08 03:19:11;;;;;;;;;6.00;3.00;;;;;;;;5077833;28;11511;-70
2022/05/08 03:21:37;;;;;;;;;3.00;3.00;;;;;;;;5077932;28;8889;-71
2022/05/08 03:24:03;;;;;;;;;5.75;4.00;;;;;;;;5077818;28;8788;-71
2022/05/08 03:26:31;;;;;;;;;6.75;3.00;;;;;;;;5077136;28;12214;-71
2022/05/08 03:28:57;;;;;;;;;5.50;3.00;;;;;;;;5078796;28;10236;-71
2022/05/08 03:31:22;;;;;;;;;9.00;6.00;;;;;;;;5081454;28;11692;-71
2022/05/08 03:33:47;;;;;;;;;5.00;5.00;;;;;;;;5081134;28;10283;-72
2022/05/08 03:36:12;;;;;;;;;5.00;3.00;;;;;;;;5081095;28;8815;-71
2022/05/08 03:38:47;;;;;;;;;3.75;3.00;;;;;;;;5081100;28;8933;-71
2022/05/08 03:41:15;;;;;;;;;3.00;3.00;;;;;;;;5081331;28;9022;-71
2022/05/08 03:43:41;;;;;;;;;5.00;5.00;;;;;;;;5081549;28;12005;-71
2022/05/08 03:46:06;;;;;;;;;4.00;3.00;;;;;;;;5079774;28;11465;-71
2022/05/08 03:48:32;;;;;;;;;5.00;5.00;;;;;;;;5081063;28;11493;-71
2022/05/08 03:50:58;;;;;;;;;6.00;5.25;;;;;;;;5081161;28;8783;-71
2022/05/08 03:53:23;;;;;;;;;5.50;5.00;;;;;;;;5079106;28;11745;-71
2022/05/08 03:55:48;;;;;;;;;3.00;3.00;;;;;;;;5080572;28;11396;-71
2022/05/08 03:58:15;;;;;;;;;5.00;2.75;;;;;;;;5080692;28;10430;-71
2022/05/08 04:00:40;;;;;;;;;5.00;5.00;;;;;;;;5079578;28;11931;-71
2022/05/08 04:03:06;;;;;;;;;5.25;3.00;;;;;;;;5081038;28;11651;-71
2022/05/08 04:05:31;;;;;;;;;5.00;5.00;;;;;;;;5080713;28;9593;-71
2022/05/08 04:07:57;;;;;;;;;4.50;4.50;;;;;;;;5079893;28;10809;-71
2022/05/08 04:10:22;;;;;;;;;5.25;5.00;;;;;;;;5079178;28;11736;-71
2022/05/08 04:12:47;;;;;;;;;3.50;3.50;;;;;;;;5080289;28;11668;-71
2022/05/08 04:17:57;;;;;;;;;3.00;3.00;;;;;;;;5080699;28;11337;-71
2022/05/08 04:20:22;;;;;;;;;6.00;3.00;;;;;;;;5078789;28;11492;-71
2022/05/08 04:25:31;;;;;;;;;0.75;0.00;;;;;;;;5080682;28;11328;-71
2022/05/08 04:27:56;;;;;;;;;5.00;5.00;;;;;;;;5079840;28;11555;-71
2022/05/08 04:30:22;;;;;;;;;5.25;5.00;;;;;;;;5080287;28;10592;-71
2022/05/08 04:32:47;;;;;;;;;2.75;2.75;;;;;;;;5078550;28;8808;-71
2022/05/08 04:35:12;;;;;;;;;4.00;3.00;;;;;;;;5079971;28;11275;-72
2022/05/08 04:37:38;;;;;;;;;5.00;5.00;;;;;;;;5079828;28;11296;-71
2022/05/08 04:40:03;;;;;;;;;7.00;3.00;;;;;;;;5080023;28;8833;-71
2022/05/08 04:42:28;;;;;;;;;3.50;3.00;;;;;;;;5079025;28;10469;-71
2022/05/08 04:44:55;;;;;;;;;5.25;5.25;;;;;;;;5080465;28;8796;-71
2022/05/08 04:47:20;;;;;;;;;5.50;5.00;;;;;;;;5080079;28;11355;-71
2022/05/08 04:49:45;;;;;;;;;4.00;4.00;;;;;;;;5079787;28;11583;-71
2022/05/08 04:52:11;;;;;;;;;7.00;5.00;;;;;;;;5077934;28;10739;-72
2022/05/08 04:54:36;;;;;;;;;6.00;5.00;;;;;;;;5078395;28;9041;-71
2022/05/08 04:57:02;;;;;;;;;5.75;5.75;;;;;;;;5078420;28;8978;-72
2022/05/08 04:59:27;;;;;;;;;5.50;5.50;;;;;;;;5079787;28;11309;-72
2022/05/08 05:01:52;;;;;;;;;4.50;4.50;;;;;;;;5080210;28;8825;-72
2022/05/08 05:04:18;;;;;;;;;4.50;4.50;;;;;;;;5078902;28;10982;-71
2022/05/08 05:06:44;;;;;;;;;3.00;2.25;;;;;;;;5080668;28;8772;-72
2022/05/08 05:09:09;;;;;;;;;6.00;6.00;;;;;;;;5079590;28;11402;-70
2022/05/08 05:11:34;;;;;;;;;3.50;3.50;;;;;;;;5079869;28;11462;-71
2022/05/08 05:13:59;;;;;;;;;5.25;3.00;;;;;;;;5080366;28;11317;-71
2022/05/08 05:16:25;;;;;;;;;4.00;4.00;;;;;;;;5080023;28;11610;-71
2022/05/08 05:18:50;;;;;;;;;5.00;3.50;;;;;;;;5079973;28;10494;-71
2022/05/08 05:21:15;;;;;;;;;6.75;5.50;;;;;;;;5079598;28;12505;-71
2022/05/08 05:23:42;;;;;;;;;4.50;4.50;;;;;;;;5079582;28;10334;-71
2022/05/08 05:26:07;;;;;;;;;6.75;3.50;;;;;;;;5080435;28;10372;-72
2022/05/08 05:28:32;;;;;;;;;4.00;2.00;;;;;;;;5080113;28;11594;-71
2022/05/08 05:30:58;;;;;;;;;5.50;3.00;;;;;;;;5078678;28;12785;-71
2022/05/08 05:33:23;;;;;;;;;3.50;3.00;;;;;;;;5080326;28;10536;-71
2022/05/08 05:35:48;;;;;;;;;6.25;3.00;;;;;;;;5080224;28;9571;-71
2022/05/08 05:38:13;;;;;;;;;5.75;5.00;;;;;;;;5079397;28;8838;-71
2022/05/08 05:40:39;;;;;;;;;5.00;5.00;;;;;;;;5077906;28;10717;-71
2022/05/08 05:43:04;;;;;;;;;7.00;4.50;;;;;;;;5079776;28;8944;-71
2022/05/08 05:45:29;;;;;;;;;6.25;5.25;;;;;;;;5078076;28;11667;-72
2022/05/08 05:47:57;;;;;;;;;5.00;5.00;;;;;;;;5078946;28;11565;-72
2022/05/08 05:50:23;;;;;;;;;7.50;5.00;;;;;;;;5079624;28;11612;-71
2022/05/08 05:52:50;;;;;;;;;7.50;6.00;;;;;;;;5078238;28;11533;-71
2022/05/08 05:55:15;;;;;;;;;8.00;7.00;;;;;;;;5079127;28;11464;-72
2022/05/08 05:57:40;;;;;;;;;7.00;7.00;;;;;;;;5078752;28;12129;-71
2022/05/08 06:00:08;;;;;;;;;8.50;8.50;;;;;;;;5078776;28;9004;-71
2022/05/08 06:02:33;;;;;;;;;5.75;5.00;;;;;;;;5078772;28;12488;-70
2022/05/08 06:04:59;;;;;;;;;3.50;3.00;;;;;;;;5077416;28;11449;-70
2022/05/08 06:07:24;;;;;;;;;10.00;5.25;;;;;;;;5077350;28;10762;-71
2022/05/08 06:09:49;;;;;;;;;5.75;5.00;;;;;;;;5074861;28;21604;-73
2022/05/08 06:12:15;;;;;;;;;10.00;6.00;;;;;;;;5074606;28;21751;-71
2022/05/08 06:14:40;;;;;;;;;12.00;10.50;;;;;;;;5075192;28;23175;-71
2022/05/08 06:17:06;;;;;;;;;8.00;5.25;;;;;;;;5076357;28;23434;-72
2022/05/08 06:19:31;;;;;;;;;11.50;8.25;;;;;;;;5077392;28;22242;-71
2022/05/08 06:21:56;;;;;;;;;6.50;5.75;;;;;;;;5077562;28;21629;-71
2022/05/08 06:24:22;;;;;;;;;7.00;6.00;;;;;;;;5078318;28;21435;-72
2022/05/08 06:26:47;;;;;;;;;5.75;5.75;;;;;;;;5077669;28;12624;-70
2022/05/08 06:29:12;;;;;;;;;7.00;6.25;;;;;;;;5071969;28;11400;-71
2022/05/08 06:31:38;;;;;;;;;10.00;6.00;;;;;;;;5077235;28;10494;-71
2022/05/08 06:34:03;;;;;;;;;7.25;5.00;;;;;;;;5073774;28;23503;-72
2022/05/08 06:36:28;;;;;;;;;4.50;4.50;;;;;;;;5074549;28;23681;-74
2022/05/08 06:38:54;;;;;;;;;7.00;6.25;;;;;;;;5078555;28;11363;-72
2022/05/08 06:41:19;;;;;;;;;5.00;4.00;;;;;;;;5078638;28;11475;-75
2022/05/08 06:43:44;;;;;;;;;6.00;6.00;;;;;;;;5078792;28;11615;-75
2022/05/08 06:46:10;;;;;;;;;7.50;7.50;;;;;;;;5078793;28;8899;-75
2022/05/08 06:48:36;;;;;;;;;6.00;6.00;;;;;;;;5078711;28;11507;-76
2022/05/08 06:51:02;;;;;;;;;5.00;5.00;;;;;;;;5075251;28;11469;-74
2022/05/08 06:53:27;;;;;;;;;6.00;6.00;;;;;;;;5058782;28;8755;-75
2022/05/08 06:55:53;;;;;;;;;1.25;1.25;;;;;;;;5056678;28;11513;-75
2022/05/08 06:58:20;;;;;;;;;4.25;3.00;;;;;;;;5057413;28;11882;-71
2022/05/08 07:03:29;;;;;;;;;5.00;5.00;;;;;;;;5058028;28;11421;-75
2022/05/08 07:05:56;;;;;;;;;5.50;5.50;;;;;;;;5057955;28;11570;-74
2022/05/08 07:08:22;;;;;;;;;6.50;6.00;;;;;;;;5056892;28;8872;-75
2022/05/08 07:10:48;;;;;;;;;6.00;6.00;;;;;;;;5057311;28;11423;-73
2022/05/08 07:13:13;;;;;;;;;6.25;6.00;;;;;;;;5057597;28;11411;-75
2022/05/08 07:15:40;;;;;;;;;6.75;6.00;;;;;;;;5072718;28;8833;-75
2022/05/08 07:18:05;;;;;;;;;5.75;4.75;;;;;;;;5057329;28;8794;-75
2022/05/08 07:20:31;;;;;;;;;10.25;6.50;;;;;;;;5073509;28;11414;-71
2022/05/08 07:22:56;;;;;;;;;6.00;6.00;;;;;;;;5075310;28;21386;-72
2022/05/08 07:25:21;;;;;;;;;7.00;7.00;;;;;;;;5072713;28;21690;-74
2022/05/08 07:27:47;;;;;;;;;6.75;6.50;;;;;;;;5068913;28;8826;-76
2022/05/08 07:30:12;;;;;;;;;8.00;8.00;;;;;;;;5071752;28;11830;-77
2022/05/08 07:32:37;;;;;;;;;4.75;4.75;;;;;;;;5075767;28;13557;-75
2022/05/08 07:37:47;;;;;;;;;6.00;5.25;;;;;;;;5078307;28;11509;-75
2022/05/08 07:40:12;;;;;;;;;8.00;5.00;;;;;;;;5074419;28;10285;-75
2022/05/08 07:42:38;;;;;;;;;5.00;5.00;;;;;;;;5070283;28;11504;-77
2022/05/08 07:45:04;;;;;;;;;4.50;4.50;;;;;;;;5073741;28;8854;-75
2022/05/08 07:47:29;;;;;;;;;6.75;6.75;;;;;;;;5075963;28;12538;-76
2022/05/08 07:49:54;;;;;;;;;6.25;6.00;;;;;;;;5075408;28;11343;-77
2022/05/08 07:52:23;;;;;;;;;7.00;7.00;;;;;;;;5075206;28;8851;-76
2022/05/08 07:54:48;;;;;;;;;8.00;5.75;;;;;;;;5075682;28;12057;-76
2022/05/08 07:57:13;;;;;;;;;7.25;6.00;;;;;;;;5075718;28;11361;-74
2022/05/08 07:59:39;;;;;;;;;7.00;7.00;;;;;;;;5075545;28;11309;-70
2022/05/08 08:02:04;;;;;;;;;8.75;8.00;;;;;;;;5072876;28;9501;-77
2022/05/08 08:04:30;;;;;;;;;7.33;6.00;;;;;;;;5074025;28;12328;-74
2022/05/08 08:06:55;;;;;;;;;5.33;5.00;;;;;;;;5073854;28;9932;-73
2022/05/08 08:09:20;;;;;;;;;7.00;7.00;;;;;;;;5074005;28;10466;-73
2022/05/08 08:11:46;;;;;;;;;6.00;5.00;;;;;;;;5075097;28;10234;-75
2022/05/08 08:14:11;;;;;;;;;5.00;5.00;;;;;;;;5068814;28;8854;-74
2022/05/08 08:16:37;;;;;;;;;6.00;5.00;;;;;;;;5077368;28;8820;-74
2022/05/08 08:19:02;;;;;;;;;4.33;4.33;;;;;;;;5078280;28;8855;-74
2022/05/08 08:21:27;;;;;;;;;4.00;4.00;;;;;;;;5078662;28;11798;-74
2022/05/08 08:23:53;;;;;;;;;4.33;3.00;;;;;;;;5078776;28;8812;-74
2022/05/08 08:26:18;;;;;;;;;4.33;4.33;;;;;;;;5078960;28;9684;-73
2022/05/08 08:28:43;;;;;;;;;3.33;3.33;;;;;;;;5079427;28;8850;-73
2022/05/08 08:31:09;;;;;;;;;5.00;4.33;;;;;;;;5079436;28;8910;-72
2022/05/08 08:33:38;;;;;;;;;14.33;12.33;;;;;;;;5079362;28;10294;-72
2022/05/08 08:36:04;;;;;;;;;13.50;12.25;;;;;;;;5078709;28;22268;-72
2022/05/08 08:38:29;;;;;;;;;5.00;5.00;;;;;;;;5079222;28;8843;-74
2022/05/08 08:40:56;;;;;;;;;6.00;5.00;;;;;;;;5079994;28;22429;-74
2022/05/08 08:43:22;;;;;;;;;6.00;6.00;;;;;;;;5078502;28;9298;-74
2022/05/08 08:48:33;;;;;;;;;7.25;5.25;;;;;;;;5080546;28;8840;-73
2022/05/08 08:50:59;;;;;;;;;6.00;6.00;;;;;;;;5078588;28;11834;-73
2022/05/08 08:53:25;;;;;;;;;4.25;4.25;;;;;;;;5081029;28;11436;-72
2022/05/08 08:55:50;;;;;;;;;4.67;4.67;;;;;;;;5080938;28;11338;-74
2022/05/08 08:58:16;;;;;;;;;4.33;4.33;;;;;;;;5079619;28;8877;-73
2022/05/08 09:00:42;;;;;;;;;4.00;4.00;;;;;;;;5078976;28;8956;-74
2022/05/08 09:03:07;;;;;;;;;7.00;6.00;;;;;;;;5073421;28;8820;-73
2022/05/08 09:05:34;;;;;;;;;6.67;5.67;;;;;;;;5063324;28;9576;-74
2022/05/08 09:08:00;;;;;;;;;5.25;5.25;;;;;;;;5060075;28;11675;-74
2022/05/08 09:10:35;;;;;;;;;5.00;5.00;;;;;;;;5059651;28;11566;-73
2022/05/08 09:13:07;;;;;;;;;5.50;5.25;;;;;;;;5059880;28;8813;-72
2022/05/08 09:15:34;;;;;;;;;6.25;5.00;;;;;;;;5059946;28;8791;-72
2022/05/08 09:18:10;;;;;;;;;4.25;4.25;;;;;;;;5060407;28;11635;-73
2022/05/08 09:20:43;;;;;;;;;6.25;4.50;;;;;;;;5059970;28;11416;-72
2022/05/08 09:23:10;;;;;;;;;9.75;7.25;;;;;;;;5059359;28;11600;-74
2022/05/08 09:25:43;;;;;;;;;6.75;6.00;;;;;;;;5062374;28;11451;-76
2022/05/08 09:28:09;;;;;;;;;5.25;5.25;;;;;;;;5073805;28;13766;-75
2022/05/08 09:30:34;;;;;;;;;7.00;6.00;;;;;;;;5059402;28;11863;-73
2022/05/08 09:32:59;;;;;;;;;6.00;6.00;;;;;;;;5058798;28;11511;-75
2022/05/08 09:35:25;;;;;;;;;4.00;4.00;;;;;;;;5059014;28;8980;-80
2022/05/08 09:37:51;;;;;;;;;6.00;5.00;;;;;;;;5055588;28;11340;-79
2022/05/08 09:40:18;;;;;;;;;4.50;4.50;;;;;;;;5059419;28;9439;-79
2022/05/08 09:42:43;;;;;;;;;4.50;4.00;;;;;;;;5059336;28;11553;-79
2022/05/08 09:45:09;;;;;;;;;3.67;3.67;;;;;;;;5058940;28;8787;-79
2022/05/08 09:47:45;;;;;;;;;3.33;3.33;;;;;;;;5058928;28;11307;-79
2022/05/08 09:50:11;;;;;;;;;5.25;4.25;;;;;;;;5058497;28;8811;-79
2022/05/08 09:52:40;;;;;;;;;5.25;5.25;;;;;;;;5059475;28;9740;-78
2022/05/08 09:55:06;;;;;;;;;3.00;3.00;;;;;;;;5058614;28;8766;-78
2022/05/08 09:57:33;;;;;;;;;4.25;4.25;;;;;;;;5059480;28;11400;-78
2022/05/08 09:59:59;;;;;;;;;3.75;3.75;;;;;;;;5058941;28;11769;-78
2022/05/08 10:02:24;;;;;;;;;6.00;4.33;;;;;;;;5058648;28;10434;-78
2022/05/08 10:04:50;;;;;;;;;5.00;5.00;;;;;;;;5058262;28;10477;-78
2022/05/08 10:07:16;;;;;;;;;5.00;3.67;;;;;;;;5058998;28;11302;-78
2022/05/08 10:15:30;;;;;;;;;5.25;4.00;;;;;;;;5059209;28;12467;-78
2022/05/08 10:18:14;;;;;;;;;4.75;4.75;;;;;;;;5058832;28;11391;-78
2022/05/08 10:20:58;;;;;;;;;4.25;4.25;;;;;;;;5058457;28;12375;-77
2022/05/08 10:23:43;;;;;;;;;7.67;7.00;;;;;;;;5058596;28;8829;-78
2022/05/08 10:26:18;;;;;;;;;5.75;5.25;;;;;;;;5058673;28;11366;-79
2022/05/08 10:29:02;;;;;;;;;5.25;4.25;;;;;;;;5056626;28;13948;-78
2022/05/08 10:31:41;;;;;;;;;5.25;5.00;;;;;;;;5058659;28;8812;-78
2022/05/08 10:34:06;;;;;;;;;6.33;5.33;;;;;;;;5058747;28;8874;-78
2022/05/08 10:36:32;;;;;;;;;6.00;5.33;;;;;;;;5058753;28;11460;-78
2022/05/08 10:39:17;;;;;;;;;5.67;5.67;;;;;;;;5058136;28;8791;-79
2022/05/08 10:41:43;;;;;;;;;5.33;4.33;;;;;;;;5058072;28;11371;-78
2022/05/08 10:44:27;;;;;;;;;7.33;6.33;;;;;;;;5056804;28;12633;-74
2022/05/08 10:46:52;;;;;;;;;6.00;6.00;;;;;;;;5066795;28;9009;-76
2022/05/08 10:49:17;;;;;;;;;10.33;7.33;;;;;;;;5078632;28;11605;-80
2022/05/08 10:51:42;;;;;;;;;5.67;5.33;;;;;;;;5075033;28;21502;-75
2022/05/08 10:54:08;;;;;;;;;7.00;5.67;;;;;;;;5078482;28;21340;-77
2022/05/08 10:56:45;;;;;;;;;6.00;6.00;;;;;;;;5078386;28;11497;-75
2022/05/08 10:59:10;;;;;;;;;5.33;5.00;;;;;;;;5078180;28;11443;-75
2022/05/08 11:01:39;;;;;;;;;5.67;5.67;;;;;;;;5078489;28;10469;-75
2022/05/08 11:04:10;;;;;;;;;4.67;4.67;;;;;;;;5078716;28;8807;-75
2022/05/08 11:06:35;;;;;;;;;7.00;6.00;;;;;;;;5076248;28;9221;-75
2022/05/08 11:09:01;;;;;;;;;5.33;5.33;;;;;;;;5076166;28;11299;-77
2022/05/08 11:11:29;;;;;;;;;6.00;6.00;;;;;;;;5077591;28;11492;-76
2022/05/08 11:13:54;;;;;;;;;6.67;6.00;;;;;;;;5077272;28;12015;-77
2022/05/08 11:16:33;;;;;;;;;5.33;5.33;;;;;;;;5077664;28;9077;-76
2022/05/08 11:18:59;;;;;;;;;6.33;6.33;;;;;;;;5077526;28;11573;-76
2022/05/08 11:21:26;;;;;;;;;4.33;4.33;;;;;;;;5077670;28;9076;-75
2022/05/08 11:23:53;;;;;;;;;9.33;8.00;;;;;;;;5078264;28;8804;-76
2022/05/08 11:26:18;;;;;;;;;6.00;6.00;;;;;;;;5077745;28;11378;-74
2022/05/08 11:28:53;;;;;;;;;7.00;7.00;;;;;;;;5077384;28;11461;-74
2022/05/08 11:31:19;;;;;;;;;9.00;9.00;;;;;;;;5077288;28;9101;-75
2022/05/08 11:36:30;;;;;;;;;5.67;5.67;;;;;;;;5075304;28;11335;-75
2022/05/08 11:39:03;;;;;;;;;5.33;5.33;;;;;;;;5077600;28;9322;-75
2022/05/08 11:41:31;;;;;;;;;8.00;5.33;;;;;;;;5076234;28;10090;-78
2022/05/08 11:43:58;;;;;;;;;7.00;7.00;;;;;;;;5075995;28;9282;-76
2022/05/08 11:46:33;;;;;;;;;7.00;6.67;;;;;;;;5075865;28;12027;-76
2022/05/08 11:48:59;;;;;;;;;6.00;6.00;;;;;;;;5075506;28;9321;-77
2022/05/08 11:51:24;;;;;;;;;6.00;6.00;;;;;;;;5079449;28;11348;-77
2022/05/08 11:53:51;;;;;;;;;8.00;7.00;;;;;;;;5078917;28;8847;-82
2022/05/08 11:56:29;;;;;;;;;6.00;6.00;;;;;;;;5079958;28;8798;-79
2022/05/08 11:58:56;;;;;;;;;6.00;5.00;;;;;;;;5080392;28;9279;-77
2022/05/08 12:01:22;;;;;;;;;6.50;6.50;;;;;;;;5077304;28;9283;-74
2022/05/08 12:03:47;;;;;;;;;6.67;6.00;;;;;;;;5079274;28;10606;-76
2022/05/08 12:06:13;;;;;;;;;5.00;5.00;;;;;;;;5079262;28;8901;-74
2022/05/08 12:08:38;;;;;;;;;7.00;5.67;;;;;;;;5078946;28;10261;-74
2022/05/08 12:11:03;;;;;;;;;4.67;4.67;;;;;;;;5078825;28;11286;-74
2022/05/08 12:13:33;;;;;;;;;6.00;6.00;;;;;;;;5080079;28;10305;-75
2022/05/08 12:16:12;;;;;;;;;7.33;6.33;;;;;;;;5079900;28;11871;-74
2022/05/08 12:18:57;;;;;;;;;7.00;7.00;;;;;;;;5078887;28;13816;-74
2022/05/08 12:21:29;;;;;;;;;7.33;7.33;;;;;;;;5080204;28;10342;-73
2022/05/08 12:23:56;;;;;;;;;10.67;6.67;;;;;;;;5079446;28;9356;-73
2022/05/08 12:26:21;;;;;;;;;6.00;6.00;;;;;;;;5080337;28;23222;-73
2022/05/08 12:28:46;;;;;;;;;6.33;5.00;;;;;;;;5079906;28;21333;-74
2022/05/08 12:31:11;;;;;;;;;4.67;4.67;;;;;;;;5080679;28;9450;-74
2022/05/08 12:33:37;;;;;;;;;6.00;5.50;;;;;;;;5080579;28;11512;-73
2022/05/08 12:36:02;;;;;;;;;6.33;5.67;;;;;;;;5079984;28;12567;-75
2022/05/08 12:38:28;;;;;;;;;8.00;7.25;;;;;;;;5080011;28;8800;-74
2022/05/08 12:40:53;;;;;;;;;7.00;7.00;;;;;;;;5080311;28;11281;-74
2022/05/08 12:43:19;;;;;;;;;6.00;6.00;;;;;;;;5080300;28;11819;-73
2022/05/08 12:45:44;;;;;;;;;10.50;8.00;;;;;;;;5080979;28;8804;-74
2022/05/08 12:48:09;;;;;;;;;6.75;6.75;;;;;;;;5080123;28;22228;-76
2022/05/08 12:50:36;;;;;;;;;7.25;7.25;;;;;;;;5078622;28;23713;-75
2022/05/08 12:53:01;;;;;;;;;7.33;6.33;;;;;;;;5080416;28;10357;-74
2022/05/08 12:55:26;;;;;;;;;5.50;2.50;;;;;;;;5080075;28;9296;-73
2022/05/08 13:00:35;;;;;;;;;6.00;5.00;;;;;;;;5078430;28;11351;-74
2022/05/08 13:03:01;;;;;;;;;10.00;9.00;;;;;;;;5080041;28;11439;-74
2022/05/08 13:05:26;;;;;;;;;16.25;12.50;;;;;;;;5079013;28;21582;-74
2022/05/08 13:07:51;;;;;;;;;20.00;17.00;;;;;;;;5079233;28;21628;-75
2022/05/08 13:10:17;;;;;;;;;12.00;10.50;;;;;;;;5079553;28;14491;-74
2022/05/08 13:12:42;;;;;;;;;7.00;6.75;;;;;;;;5079550;28;13264;-73
2022/05/08 13:15:07;;;;;;;;;5.00;5.00;;;;;;;;5079085;28;22166;-73
2022/05/08 13:17:32;;;;;;;;;8.50;7.00;;;;;;;;5079181;28;11694;-74
2022/05/08 13:20:01;;;;;;;;;6.25;6.25;;;;;;;;5079648;28;10410;-72
2022/05/08 13:22:26;;;;;;;;;8.00;8.00;;;;;;;;5079359;28;11583;-73
2022/05/08 13:24:52;;;;;;;;;8.00;7.25;;;;;;;;5079420;28;12702;-73
2022/05/08 13:27:17;;;;;;;;;7.00;5.75;;;;;;;;5077859;28;10893;-74
2022/05/08 13:29:42;;;;;;;;;4.50;4.50;;;;;;;;5079263;28;10433;-73
2022/05/08 13:32:08;;;;;;;;;7.50;7.00;;;;;;;;5079707;28;11454;-73
2022/05/08 13:34:33;;;;;;;;;6.75;6.75;;;;;;;;5080394;28;11295;-73
2022/05/08 13:36:58;;;;;;;;;8.00;7.00;;;;;;;;5079754;28;11312;-72
2022/05/08 13:39:24;;;;;;;;;8.00;7.00;;;;;;;;5079677;28;11320;-74
2022/05/08 13:41:52;;;;;;;;;8.25;8.25;;;;;;;;5079934;28;8806;-73
2022/05/08 13:44:17;;;;;;;;;11.00;10.25;;;;;;;;5079277;28;10639;-74
2022/05/08 13:46:42;;;;;;;;;10.25;10.00;;;;;;;;5078582;28;23726;-74
2022/05/08 13:49:09;;;;;;;;;10.25;10.25;;;;;;;;5079797;28;11358;-74
2022/05/08 13:51:34;;;;;;;;;12.50;9.00;;;;;;;;5079935;28;8855;-73
2022/05/08 13:53:59;;;;;;;;;7.00;7.00;;;;;;;;5079129;28;21358;-74
2022/05/08 13:56:24;;;;;;;;;6.00;6.00;;;;;;;;5079243;28;21330;-74
2022/05/08 13:58:51;;;;;;;;;7.00;7.00;;;;;;;;5079337;28;8816;-73
2022/05/08 14:01:19;;;;;;;;;7.75;7.75;;;;;;;;5078897;28;9679;-73
2022/05/08 14:03:44;;;;;;;;;9.25;9.25;;;;;;;;5079190;28;9733;-74
2022/05/08 14:06:11;;;;;;;;;7.75;7.75;;;;;;;;5079292;28;10775;-74
2022/05/08 14:08:37;;;;;;;;;10.00;8.50;;;;;;;;5078677;28;10855;-74
2022/05/08 14:11:02;;;;;;;;;9.50;7.75;;;;;;;;5078656;28;22646;-73
2022/05/08 14:13:27;;;;;;;;;7.00;7.00;;;;;;;;5077800;28;21774;-73
2022/05/08 14:15:52;;;;;;;;;7.00;7.00;;;;;;;;5077683;28;13976;-73
2022/05/08 14:18:18;;;;;;;;;8.00;8.00;;;;;;;;5079033;28;8832;-73
2022/05/08 14:20:43;;;;;;;;;11.50;9.50;;;;;;;;5079633;28;8881;-74
2022/05/08 14:23:08;;;;;;;;;7.25;7.25;;;;;;;;5078580;28;22650;-74
2022/05/08 14:25:34;;;;;;;;;12.75;12.75;;;;;;;;5078607;28;21855;-73
2022/05/08 14:28:00;;;;;;;;;9.00;9.00;;;;;;;;5078013;28;22279;-75
2022/05/08 14:30:25;;;;;;;;;7.75;7.50;;;;;;;;5077010;28;22790;-73
2022/05/08 14:38:06;;;;;;;;;9.00;7.75;;;;;;;;5076365;28;14020;-77
2022/05/08 14:40:32;;;;;;;;;8.50;7.00;;;;;;;;5074987;28;12842;-76
2022/05/08 14:42:57;;;;;;;;;7.00;6.75;;;;;;;;5077033;28;11308;-75
2022/05/08 14:45:23;;;;;;;;;7.00;6.75;;;;;;;;5072963;28;13376;-77
2022/05/08 14:47:48;;;;;;;;;9.75;8.00;;;;;;;;5068227;28;8958;-76
2022/05/08 14:50:13;;;;;;;;;10.00;8.00;;;;;;;;5066533;28;11346;-76
2022/05/08 14:52:38;;;;;;;;;4.50;3.50;;;;;;;;5080990;28;18221;-77
2022/05/08 14:55:04;;;;;;;;;8.50;8.50;;;;;;;;5067416;28;21334;-76
2022/05/08 14:57:29;;;;;;;;;7.50;6.00;;;;;;;;5066462;28;8844;-77
2022/05/08 14:59:55;;;;;;;;;7.50;7.25;;;;;;;;5066418;28;11837;-76
2022/05/08 15:02:20;;;;;;;;;6.25;6.25;;;;;;;;5082891;28;11019;-75
2022/05/08 15:04:47;;;;;;;;;8.25;7.00;;;;;;;;5065464;28;10577;-77
2022/05/08 15:07:12;;;;;;;;;7.00;7.00;;;;;;;;5081151;28;11772;-76
2022/05/08 15:09:38;;;;;;;;;7.50;7.50;;;;;;;;5065010;28;10115;-75
2022/05/08 15:12:03;;;;;;;;;9.00;7.75;;;;;;;;5067616;28;8828;-76
2022/05/08 15:14:29;;;;;;;;;9.00;7.00;;;;;;;;5065699;28;11481;-76